createdAt,value
2018-07-06T00:00:13.480Z,21.02
2018-07-06T00:01:13.481Z,20.96
2018-07-06T00:02:13.494Z,20.99
2018-07-06T00:03:14.295Z,20.99
2018-07-06T00:04:13.566Z,20.93
2018-07-06T00:05:13.495Z,21.02
2018-07-06T00:06:13.499Z,20.95
2018-07-06T00:07:13.499Z,20.95
2018-07-06T00:08:13.504Z,21.00
2018-07-06T00:09:13.509Z,20.93
2018-07-06T00:10:13.512Z,20.92
2018-07-06T00:11:13.522Z,20.90
2018-07-06T00:12:13.518Z,20.92
2018-07-06T00:13:13.576Z,20.99
2018-07-06T00:14:13.523Z,21.02
2018-07-06T00:15:13.537Z,20.97
2018-07-06T00:16:13.530Z,20.93
2018-07-06T00:17:13.534Z,20.99
2018-07-06T00:18:13.540Z,20.96
2018-07-06T00:19:13.544Z,20.97
2018-07-06T00:20:13.550Z,20.90
2018-07-06T00:21:13.546Z,20.99
2018-07-06T00:22:13.552Z,20.99
2018-07-06T00:23:13.680Z,21.02
2018-07-06T00:24:14.333Z,20.97
2018-07-06T00:25:14.334Z,21.00
2018-07-06T00:26:13.685Z,21.00
2018-07-06T00:27:13.744Z,21.03
2018-07-06T00:28:14.340Z,21.03
2018-07-06T00:29:13.668Z,20.99
2018-07-06T00:30:13.737Z,21.05
2018-07-06T00:31:13.652Z,21.09
2018-07-06T00:32:13.698Z,21.03
2018-07-06T00:33:13.588Z,21.09
2018-07-06T00:34:13.591Z,21.11
2018-07-06T00:35:13.594Z,21.11
2018-07-06T00:36:13.600Z,21.05
2018-07-06T00:37:13.602Z,21.11
2018-07-06T00:38:13.618Z,21.00
2018-07-06T00:39:13.609Z,21.11
2018-07-06T00:40:13.614Z,21.07
2018-07-06T00:41:13.619Z,21.02
2018-07-06T00:42:13.620Z,21.09
2018-07-06T00:43:13.620Z,21.07
2018-07-06T00:44:13.626Z,21.12
2018-07-06T00:45:13.629Z,21.05
2018-07-06T00:46:13.633Z,21.06
2018-07-06T00:47:13.637Z,21.02
2018-07-06T00:48:13.645Z,21.02
2018-07-06T00:49:13.655Z,21.11
2018-07-06T00:50:13.646Z,21.00
2018-07-06T00:51:13.648Z,21.06
2018-07-06T00:52:13.653Z,20.99
2018-07-06T00:53:13.659Z,21.07
2018-07-06T00:54:13.663Z,20.96
2018-07-06T00:55:13.666Z,21.03
2018-07-06T00:56:13.667Z,21.00
2018-07-06T00:57:13.670Z,20.96
2018-07-06T00:58:13.674Z,20.99
2018-07-06T00:59:13.676Z,21.03
2018-07-06T01:00:13.683Z,21.03
2018-07-06T01:01:13.686Z,21.00
2018-07-06T01:02:13.687Z,21.00
2018-07-06T01:03:13.691Z,20.92
2018-07-06T01:04:13.695Z,20.95
2018-07-06T01:05:13.698Z,21.05
2018-07-06T01:06:13.709Z,21.00
2018-07-06T01:07:13.712Z,20.97
2018-07-06T01:08:13.710Z,20.96
2018-07-06T01:09:13.711Z,20.97
2018-07-06T01:10:13.744Z,20.99
2018-07-06T01:11:13.718Z,20.99
2018-07-06T01:12:13.723Z,20.96
2018-07-06T01:13:13.726Z,20.90
2018-07-06T01:14:13.729Z,20.95
2018-07-06T01:15:13.730Z,20.85
2018-07-06T01:16:13.735Z,20.85
2018-07-06T01:17:13.748Z,20.81
2018-07-06T01:18:13.742Z,20.87
2018-07-06T01:19:13.751Z,20.85
2018-07-06T01:20:13.751Z,20.92
2018-07-06T01:21:13.752Z,20.85
2018-07-06T01:22:13.756Z,20.84
2018-07-06T01:23:13.759Z,20.75
2018-07-06T01:24:13.763Z,20.78
2018-07-06T01:25:14.889Z,20.65
2018-07-06T01:26:14.889Z,20.60
2018-07-06T01:27:14.402Z,20.62
2018-07-06T01:28:14.384Z,20.67
2018-07-06T01:29:13.909Z,20.66
2018-07-06T01:30:14.377Z,20.60
2018-07-06T01:31:13.822Z,20.63
2018-07-06T01:32:14.883Z,20.59
2018-07-06T01:33:14.348Z,20.51
2018-07-06T01:34:13.895Z,20.43
2018-07-06T01:35:14.913Z,20.43
2018-07-06T01:36:13.833Z,20.31
2018-07-06T01:37:14.876Z,20.39
2018-07-06T01:38:14.837Z,20.37
2018-07-06T01:39:13.839Z,20.43
2018-07-06T01:40:13.925Z,20.37
2018-07-06T01:41:14.854Z,20.24
2018-07-06T01:42:14.874Z,20.14
2018-07-06T01:43:15.345Z,20.22
2018-07-06T01:44:13.825Z,20.16
2018-07-06T01:45:13.827Z,20.22
2018-07-06T01:46:14.529Z,20.18
2018-07-06T01:47:13.834Z,20.07
2018-07-06T01:48:13.836Z,20.09
2018-07-06T01:49:13.841Z,20.09
2018-07-06T01:50:13.845Z,20.11
2018-07-06T01:51:13.843Z,20.06
2018-07-06T01:52:13.846Z,20.00
2018-07-06T01:53:13.850Z,20.10
2018-07-06T01:54:13.852Z,20.02
2018-07-06T01:55:13.856Z,19.99
2018-07-06T01:56:13.860Z,20.02
2018-07-06T01:57:13.860Z,20.02
2018-07-06T01:58:13.864Z,19.96
2018-07-06T01:59:13.867Z,19.95
2018-07-06T02:00:13.868Z,20.00
2018-07-06T02:01:13.871Z,19.95
2018-07-06T02:02:13.874Z,19.95
2018-07-06T02:03:13.880Z,19.94
2018-07-06T02:04:13.879Z,19.95
2018-07-06T02:05:13.882Z,20.04
2018-07-06T02:06:13.887Z,19.94
2018-07-06T02:07:13.886Z,20.04
2018-07-06T02:08:13.892Z,20.10
2018-07-06T02:09:13.893Z,20.07
2018-07-06T02:10:13.898Z,20.11
2018-07-06T02:11:13.897Z,20.09
2018-07-06T02:12:13.899Z,20.14
2018-07-06T02:13:13.907Z,20.18
2018-07-06T02:14:13.909Z,20.07
2018-07-06T02:15:13.926Z,20.07
2018-07-06T02:16:13.920Z,20.16
2018-07-06T02:17:13.917Z,20.10
2018-07-06T02:18:13.917Z,20.10
2018-07-06T02:19:13.926Z,20.06
2018-07-06T02:20:13.924Z,20.10
2018-07-06T02:21:13.929Z,20.10
2018-07-06T02:22:13.928Z,20.06
2018-07-06T02:23:13.931Z,20.03
2018-07-06T02:24:13.942Z,20.02
2018-07-06T02:25:13.940Z,20.03
2018-07-06T02:26:13.940Z,20.02
2018-07-06T02:27:13.946Z,20.11
2018-07-06T02:28:13.945Z,20.09
2018-07-06T02:29:13.952Z,20.09
2018-07-06T02:30:13.952Z,20.11
2018-07-06T02:31:13.962Z,20.03
2018-07-06T02:32:13.958Z,20.13
2018-07-06T02:33:13.959Z,20.13
2018-07-06T02:34:13.963Z,20.13
2018-07-06T02:35:13.966Z,20.06
2018-07-06T02:36:13.972Z,20.14
2018-07-06T02:37:13.972Z,20.06
2018-07-06T02:38:13.982Z,19.95
2018-07-06T02:39:13.979Z,20.03
2018-07-06T02:40:13.982Z,20.04
2018-07-06T02:41:13.989Z,19.99
2018-07-06T02:42:14.000Z,19.94
2018-07-06T02:43:14.000Z,20.00
2018-07-06T02:44:13.996Z,19.92
2018-07-06T02:45:13.995Z,19.96
2018-07-06T02:46:13.999Z,19.95
2018-07-06T02:47:14.001Z,19.94
2018-07-06T02:48:14.002Z,19.95
2018-07-06T02:49:14.008Z,20.00
2018-07-06T02:50:14.008Z,20.04
2018-07-06T02:51:14.011Z,19.85
2018-07-06T02:52:14.014Z,19.89
2018-07-06T02:53:14.018Z,19.88
2018-07-06T02:54:14.019Z,19.95
2018-07-06T02:55:14.075Z,19.94
2018-07-06T02:56:14.024Z,19.91
2018-07-06T02:57:14.028Z,19.94
2018-07-06T02:58:14.029Z,20.00
2018-07-06T02:59:14.036Z,20.04
2018-07-06T03:00:14.035Z,20.06
2018-07-06T03:01:14.038Z,20.03
2018-07-06T03:02:14.049Z,20.04
2018-07-06T03:03:14.044Z,20.04
2018-07-06T03:04:14.044Z,20.04
2018-07-06T03:05:14.049Z,20.09
2018-07-06T03:06:14.052Z,20.06
2018-07-06T03:07:14.053Z,20.11
2018-07-06T03:08:14.057Z,20.03
2018-07-06T03:09:14.060Z,20.04
2018-07-06T03:10:14.065Z,20.04
2018-07-06T03:11:14.063Z,20.00
2018-07-06T03:12:14.070Z,19.96
2018-07-06T03:13:14.071Z,20.03
2018-07-06T03:14:14.111Z,20.07
2018-07-06T03:15:14.078Z,20.06
2018-07-06T03:16:14.077Z,19.92
2018-07-06T03:17:14.085Z,19.94
2018-07-06T03:18:35.096Z,19.95
2018-07-06T03:19:14.086Z,19.96
2018-07-06T03:20:14.090Z,20.02
2018-07-06T03:21:14.093Z,19.96
2018-07-06T03:22:14.094Z,19.94
2018-07-06T03:23:14.096Z,20.00
2018-07-06T03:24:14.099Z,20.04
2018-07-06T03:25:14.103Z,19.91
2018-07-06T03:26:14.145Z,19.85
2018-07-06T03:27:14.107Z,19.85
2018-07-06T03:28:14.126Z,19.86
2018-07-06T03:29:14.113Z,19.84
2018-07-06T03:30:14.116Z,19.81
2018-07-06T03:31:14.127Z,19.84
2018-07-06T03:32:14.123Z,19.85
2018-07-06T03:33:14.123Z,19.82
2018-07-06T03:34:14.131Z,19.85
2018-07-06T03:35:14.131Z,19.82
2018-07-06T03:36:14.136Z,19.82
2018-07-06T03:37:14.136Z,19.85
2018-07-06T03:38:14.136Z,19.76
2018-07-06T03:39:14.138Z,19.67
2018-07-06T03:40:14.142Z,19.76
2018-07-06T03:41:14.158Z,19.67
2018-07-06T03:42:14.150Z,19.67
2018-07-06T03:43:14.149Z,19.69
2018-07-06T03:44:14.152Z,19.82
2018-07-06T03:45:14.157Z,19.81
2018-07-06T03:46:14.159Z,19.85
2018-07-06T03:47:14.160Z,19.70
2018-07-06T03:48:14.163Z,19.67
2018-07-06T03:49:14.166Z,19.59
2018-07-06T03:50:14.169Z,19.56
2018-07-06T03:51:14.171Z,19.52
2018-07-06T03:52:14.175Z,19.51
2018-07-06T03:53:14.177Z,19.34
2018-07-06T03:54:14.178Z,19.37
2018-07-06T03:55:14.180Z,19.27
2018-07-06T03:56:14.190Z,19.27
2018-07-06T03:57:14.186Z,19.12
2018-07-06T03:58:14.188Z,19.08
2018-07-06T03:59:14.189Z,19.15
2018-07-06T04:00:14.191Z,19.12
2018-07-06T04:01:14.198Z,19.09
2018-07-06T04:02:14.196Z,19.07
2018-07-06T04:03:14.196Z,19.09
2018-07-06T04:04:14.202Z,19.07
2018-07-06T04:05:14.203Z,19.02
2018-07-06T04:06:14.205Z,19.07
2018-07-06T04:07:14.207Z,18.99
2018-07-06T04:08:14.209Z,18.99
2018-07-06T04:09:14.264Z,19.09
2018-07-06T04:10:14.216Z,18.96
2018-07-06T04:11:14.215Z,19.02
2018-07-06T04:12:14.216Z,19.09
2018-07-06T04:13:14.219Z,18.92
2018-07-06T04:14:14.222Z,19.00
2018-07-06T04:15:14.223Z,19.11
2018-07-06T04:16:14.227Z,19.09
2018-07-06T04:17:14.228Z,19.09
2018-07-06T04:18:14.232Z,19.12
2018-07-06T04:19:14.232Z,19.09
2018-07-06T04:20:14.233Z,19.02
2018-07-06T04:21:14.239Z,19.14
2018-07-06T04:22:14.240Z,19.15
2018-07-06T04:23:14.239Z,19.11
2018-07-06T04:24:14.241Z,19.12
2018-07-06T04:25:14.245Z,18.99
2018-07-06T04:26:14.251Z,18.92
2018-07-06T04:27:14.273Z,18.99
2018-07-06T04:28:14.253Z,18.95
2018-07-06T04:29:14.251Z,18.90
2018-07-06T04:30:14.255Z,18.88
2018-07-06T04:31:14.255Z,18.80
2018-07-06T04:32:14.257Z,18.86
2018-07-06T04:33:14.258Z,18.83
2018-07-06T04:34:14.267Z,18.78
2018-07-06T04:35:14.263Z,18.71
2018-07-06T04:36:14.264Z,18.60
2018-07-06T04:37:14.266Z,18.63
2018-07-06T04:38:14.271Z,18.74
2018-07-06T04:39:14.274Z,18.68
2018-07-06T04:40:14.275Z,18.74
2018-07-06T04:41:14.272Z,18.66
2018-07-06T04:42:14.276Z,18.75
2018-07-06T04:43:15.627Z,18.75
2018-07-06T04:44:14.329Z,18.74
2018-07-06T04:45:14.285Z,18.74
2018-07-06T04:46:14.284Z,18.78
2018-07-06T04:47:14.287Z,18.90
2018-07-06T04:48:14.288Z,18.86
2018-07-06T04:49:14.289Z,18.89
2018-07-06T04:50:14.290Z,18.92
2018-07-06T04:51:14.291Z,18.95
2018-07-06T04:52:14.295Z,18.96
2018-07-06T04:53:14.354Z,18.89
2018-07-06T04:54:14.300Z,18.92
2018-07-06T04:55:14.299Z,18.95
2018-07-06T04:56:14.307Z,18.98
2018-07-06T04:57:15.588Z,18.92
2018-07-06T04:58:14.305Z,18.96
2018-07-06T04:59:14.363Z,18.96
2018-07-06T05:00:14.308Z,19.02
2018-07-06T05:01:14.311Z,18.92
2018-07-06T05:02:14.314Z,19.02
2018-07-06T05:03:14.322Z,19.00
2018-07-06T05:04:14.320Z,18.98
2018-07-06T05:05:14.320Z,19.00
2018-07-06T05:06:14.321Z,19.02
2018-07-06T05:07:14.323Z,18.96
2018-07-06T05:08:14.326Z,18.99
2018-07-06T05:09:14.334Z,18.96
2018-07-06T05:10:14.330Z,19.02
2018-07-06T05:11:14.329Z,18.95
2018-07-06T05:12:14.335Z,18.98
2018-07-06T05:13:14.337Z,18.93
2018-07-06T05:14:14.336Z,18.98
2018-07-06T05:15:14.338Z,18.90
2018-07-06T05:16:14.344Z,18.96
2018-07-06T05:17:14.342Z,18.89
2018-07-06T05:18:14.345Z,18.95
2018-07-06T05:19:14.348Z,19.04
2018-07-06T05:20:14.355Z,19.00
2018-07-06T05:21:14.352Z,19.08
2018-07-06T05:22:14.353Z,19.15
2018-07-06T05:23:14.355Z,19.15
2018-07-06T05:24:14.357Z,19.16
2018-07-06T05:25:14.361Z,19.14
2018-07-06T05:26:14.361Z,19.16
2018-07-06T05:27:14.363Z,19.16
2018-07-06T05:28:14.365Z,19.09
2018-07-06T05:29:14.368Z,19.11
2018-07-06T05:30:14.371Z,19.07
2018-07-06T05:31:14.370Z,19.04
2018-07-06T05:32:14.374Z,19.04
2018-07-06T05:33:14.374Z,19.12
2018-07-06T05:34:14.381Z,19.02
2018-07-06T05:35:14.380Z,19.11
2018-07-06T05:36:14.381Z,18.99
2018-07-06T05:37:14.383Z,19.11
2018-07-06T05:38:14.386Z,19.07
2018-07-06T05:39:14.389Z,19.09
2018-07-06T05:40:14.390Z,19.04
2018-07-06T05:41:14.393Z,19.08
2018-07-06T05:42:14.395Z,19.04
2018-07-06T05:43:14.397Z,18.98
2018-07-06T05:44:14.398Z,19.04
2018-07-06T05:45:14.400Z,19.02
2018-07-06T05:46:14.406Z,19.04
2018-07-06T05:47:14.403Z,18.95
2018-07-06T05:48:14.406Z,18.90
2018-07-06T05:49:14.409Z,18.80
2018-07-06T05:50:14.410Z,18.73
2018-07-06T05:51:14.416Z,18.70
2018-07-06T05:52:14.415Z,18.73
2018-07-06T05:53:14.418Z,18.63
2018-07-06T05:54:14.418Z,18.58
2018-07-06T05:55:14.420Z,18.66
2018-07-06T05:56:14.438Z,18.74
2018-07-06T05:57:14.423Z,18.77
2018-07-06T05:58:14.431Z,18.88
2018-07-06T05:59:14.454Z,18.96
2018-07-06T06:00:14.429Z,18.96
2018-07-06T06:01:14.431Z,18.99
2018-07-06T06:02:14.436Z,19.07
2018-07-06T06:03:14.437Z,18.98
2018-07-06T06:04:14.437Z,19.21
2018-07-06T06:05:14.439Z,19.11
2018-07-06T06:06:14.443Z,19.12
2018-07-06T06:07:14.446Z,19.12
2018-07-06T06:08:14.450Z,19.11
2018-07-06T06:09:14.449Z,19.11
2018-07-06T06:10:14.450Z,19.12
2018-07-06T06:11:14.451Z,19.14
2018-07-06T06:12:14.509Z,19.09
2018-07-06T06:13:14.456Z,19.22
2018-07-06T06:14:14.460Z,19.19
2018-07-06T06:15:14.459Z,19.31
2018-07-06T06:16:14.462Z,19.39
2018-07-06T06:17:14.466Z,19.33
2018-07-06T06:18:14.466Z,19.44
2018-07-06T06:19:14.468Z,19.56
2018-07-06T06:20:14.470Z,19.67
2018-07-06T06:21:14.472Z,19.73
2018-07-06T06:22:14.476Z,19.88
2018-07-06T06:23:14.480Z,19.89
2018-07-06T06:24:14.480Z,19.95
2018-07-06T06:25:14.483Z,19.88
2018-07-06T06:26:14.485Z,19.81
2018-07-06T06:27:14.488Z,19.63
2018-07-06T06:28:14.489Z,19.54
2018-07-06T06:29:14.491Z,19.41
2018-07-06T06:30:14.495Z,19.45
2018-07-06T06:31:14.496Z,19.33
2018-07-06T06:32:14.511Z,19.37
2018-07-06T06:33:14.576Z,19.31
2018-07-06T06:34:14.505Z,19.26
2018-07-06T06:35:14.515Z,19.31
2018-07-06T06:36:14.509Z,19.39
2018-07-06T06:37:14.516Z,19.37
2018-07-06T06:38:14.518Z,19.41
2018-07-06T06:39:14.516Z,19.39
2018-07-06T06:40:14.520Z,19.31
2018-07-06T06:41:14.521Z,19.34
2018-07-06T06:42:14.524Z,19.30
2018-07-06T06:43:14.525Z,19.27
2018-07-06T06:44:14.527Z,19.36
2018-07-06T06:45:14.532Z,19.48
2018-07-06T06:46:14.538Z,19.51
2018-07-06T06:47:14.535Z,19.73
2018-07-06T06:48:14.543Z,19.76
2018-07-06T06:49:14.541Z,19.88
2018-07-06T06:50:14.545Z,19.95
2018-07-06T06:51:14.544Z,19.96
2018-07-06T06:52:14.567Z,20.03
2018-07-06T06:53:14.551Z,20.10
2018-07-06T06:54:14.552Z,20.24
2018-07-06T06:55:14.554Z,20.26
2018-07-06T06:56:14.557Z,20.24
2018-07-06T06:57:14.565Z,20.31
2018-07-06T06:58:14.563Z,20.39
2018-07-06T06:59:14.565Z,20.31
2018-07-06T07:00:14.568Z,20.43
2018-07-06T07:01:14.572Z,20.50
2018-07-06T07:02:14.574Z,20.39
2018-07-06T07:03:14.579Z,20.32
2018-07-06T07:04:14.581Z,20.36
2018-07-06T07:05:14.584Z,20.21
2018-07-06T07:06:14.589Z,20.34
2018-07-06T07:07:14.592Z,20.39
2018-07-06T07:08:14.596Z,20.39
2018-07-06T07:09:14.599Z,20.29
2018-07-06T07:10:14.599Z,20.43
2018-07-06T07:11:14.600Z,20.47
2018-07-06T07:12:14.602Z,20.47
2018-07-06T07:13:14.606Z,20.44
2018-07-06T07:14:14.669Z,20.52
2018-07-06T07:15:14.613Z,20.47
2018-07-06T07:16:14.614Z,20.39
2018-07-06T07:17:14.621Z,20.34
2018-07-06T07:18:14.622Z,20.32
2018-07-06T07:19:14.625Z,20.36
2018-07-06T07:20:14.627Z,20.40
2018-07-06T07:21:14.678Z,20.48
2018-07-06T07:22:14.641Z,20.52
2018-07-06T07:23:14.637Z,20.63
2018-07-06T07:24:14.639Z,20.72
2018-07-06T07:25:14.643Z,20.75
2018-07-06T07:26:14.646Z,20.70
2018-07-06T07:27:14.647Z,20.63
2018-07-06T07:28:14.662Z,20.62
2018-07-06T07:29:14.655Z,20.69
2018-07-06T07:30:14.736Z,20.77
2018-07-06T07:31:14.661Z,20.85
2018-07-06T07:32:14.663Z,20.88
2018-07-06T07:33:14.668Z,20.87
2018-07-06T07:34:14.677Z,20.85
2018-07-06T07:35:14.683Z,20.93
2018-07-06T07:36:14.701Z,20.99
2018-07-06T07:37:14.690Z,20.93
2018-07-06T07:38:14.722Z,21.12
2018-07-06T07:39:14.685Z,21.06
2018-07-06T07:40:14.688Z,21.12
2018-07-06T07:41:14.698Z,21.06
2018-07-06T07:42:14.698Z,21.03
2018-07-06T07:43:14.699Z,21.00
2018-07-06T07:44:14.937Z,20.99
2018-07-06T07:45:14.707Z,20.97
2018-07-06T07:46:14.709Z,20.95
2018-07-06T07:47:14.713Z,21.03
2018-07-06T07:48:14.717Z,20.97
2018-07-06T07:49:14.723Z,21.09
2018-07-06T07:50:14.724Z,21.05
2018-07-06T07:51:14.726Z,20.99
2018-07-06T07:52:14.735Z,21.00
2018-07-06T07:53:14.732Z,21.17
2018-07-06T07:54:14.744Z,21.29
2018-07-06T07:55:14.740Z,21.24
2018-07-06T07:56:14.744Z,21.27
2018-07-06T07:57:14.746Z,21.30
2018-07-06T07:58:14.752Z,21.24
2018-07-06T07:59:14.753Z,21.22
2018-07-06T08:00:14.762Z,21.18
2018-07-06T08:01:14.866Z,21.20
2018-07-06T08:02:14.765Z,21.24
2018-07-06T08:03:14.777Z,21.33
2018-07-06T08:04:14.771Z,21.32
2018-07-06T08:05:14.773Z,21.32
2018-07-06T08:06:14.778Z,21.48
2018-07-06T08:07:14.780Z,21.42
2018-07-06T08:08:14.787Z,21.54
2018-07-06T08:09:14.789Z,21.52
2018-07-06T08:10:14.797Z,21.43
2018-07-06T08:11:14.795Z,21.64
2018-07-06T08:12:14.798Z,21.75
2018-07-06T08:13:14.802Z,21.77
2018-07-06T08:14:14.808Z,21.66
2018-07-06T08:15:14.816Z,21.51
2018-07-06T08:16:14.815Z,21.30
2018-07-06T08:17:14.817Z,21.27
2018-07-06T08:18:14.826Z,21.15
2018-07-06T08:19:14.827Z,21.06
2018-07-06T08:20:14.831Z,21.00
2018-07-06T08:21:14.831Z,21.06
2018-07-06T08:22:14.835Z,21.00
2018-07-06T08:23:14.841Z,21.05
2018-07-06T08:24:14.842Z,20.97
2018-07-06T08:25:14.851Z,21.00
2018-07-06T08:26:14.855Z,21.02
2018-07-06T08:27:14.852Z,21.06
2018-07-06T08:28:14.857Z,21.00
2018-07-06T08:29:14.859Z,21.09
2018-07-06T08:30:14.891Z,21.07
2018-07-06T08:31:14.868Z,21.02
2018-07-06T08:32:14.867Z,21.05
2018-07-06T08:33:14.871Z,21.14
2018-07-06T08:34:14.880Z,21.03
2018-07-06T08:35:14.881Z,21.11
2018-07-06T08:36:14.883Z,21.14
2018-07-06T08:37:14.886Z,21.29
2018-07-06T08:38:14.887Z,21.39
2018-07-06T08:39:14.892Z,21.48
2018-07-06T08:40:14.897Z,21.89
2018-07-06T08:41:14.909Z,22.23
2018-07-06T08:42:14.902Z,22.33
2018-07-06T08:43:14.904Z,22.48
2018-07-06T08:44:14.909Z,22.87
2018-07-06T08:45:14.918Z,22.91
2018-07-06T08:46:14.917Z,22.90
2018-07-06T08:47:14.920Z,22.94
2018-07-06T08:48:14.924Z,22.98
2018-07-06T08:49:14.931Z,22.96
2018-07-06T08:50:14.982Z,22.93
2018-07-06T08:51:14.960Z,22.75
2018-07-06T08:52:14.945Z,22.69
2018-07-06T08:53:14.946Z,22.55
2018-07-06T08:54:14.949Z,22.57
2018-07-06T08:55:14.960Z,22.51
2018-07-06T08:56:14.988Z,22.51
2018-07-06T08:57:14.962Z,22.48
2018-07-06T08:58:14.967Z,22.50
2018-07-06T08:59:14.980Z,22.50
2018-07-06T09:00:14.978Z,22.47
2018-07-06T09:01:14.978Z,22.47
2018-07-06T09:02:14.984Z,22.45
2018-07-06T09:03:14.989Z,22.51
2018-07-06T09:04:15.012Z,22.43
2018-07-06T09:05:15.002Z,22.57
2018-07-06T09:06:15.004Z,22.54
2018-07-06T09:07:15.032Z,22.54
2018-07-06T09:08:15.037Z,22.57
2018-07-06T09:09:15.048Z,22.53
2018-07-06T09:10:15.019Z,22.65
2018-07-06T09:11:15.023Z,22.73
2018-07-06T09:12:15.024Z,22.84
2018-07-06T09:13:15.031Z,22.93
2018-07-06T09:14:15.039Z,22.94
2018-07-06T09:15:15.039Z,23.02
2018-07-06T09:16:15.055Z,23.28
2018-07-06T09:17:15.046Z,23.54
2018-07-06T09:18:15.053Z,23.44
2018-07-06T09:19:15.106Z,23.46
2018-07-06T09:20:15.187Z,23.46
2018-07-06T09:21:15.069Z,23.40
2018-07-06T09:22:15.070Z,23.48
2018-07-06T09:23:15.079Z,24.02
2018-07-06T09:24:15.125Z,24.16
2018-07-06T09:25:15.113Z,24.01
2018-07-06T09:26:15.207Z,23.96
2018-07-06T09:27:15.090Z,23.96
2018-07-06T09:28:15.095Z,24.11
2018-07-06T09:29:15.101Z,24.10
2018-07-06T09:30:15.109Z,24.05
2018-07-06T09:31:15.114Z,24.05
2018-07-06T09:32:15.119Z,24.02
2018-07-06T09:33:15.120Z,24.06
2018-07-06T09:34:15.125Z,24.03
2018-07-06T09:35:15.131Z,24.03
2018-07-06T09:36:15.134Z,24.13
2018-07-06T09:37:15.142Z,24.11
2018-07-06T09:38:15.149Z,24.14
2018-07-06T09:39:15.150Z,24.17
2018-07-06T09:40:15.159Z,24.13
2018-07-06T09:41:15.160Z,24.16
2018-07-06T09:42:15.166Z,24.20
2018-07-06T09:43:15.211Z,24.36
2018-07-06T09:44:15.174Z,24.32
2018-07-06T09:45:15.186Z,24.32
2018-07-06T09:46:15.185Z,24.33
2018-07-06T09:47:15.192Z,24.39
2018-07-06T09:48:15.203Z,24.47
2018-07-06T09:49:15.201Z,24.47
2018-07-06T09:50:15.298Z,24.39
2018-07-06T09:51:15.383Z,24.33
2018-07-06T09:52:15.215Z,24.28
2018-07-06T09:53:15.220Z,24.13
2018-07-06T09:54:15.225Z,24.17
2018-07-06T09:55:15.231Z,24.17
2018-07-06T09:56:15.235Z,24.03
2018-07-06T09:57:15.241Z,23.98
2018-07-06T09:58:15.246Z,23.93
2018-07-06T09:59:15.274Z,23.92
2018-07-06T10:00:15.256Z,23.88
2018-07-06T10:01:15.261Z,23.81
2018-07-06T10:02:15.294Z,23.74
2018-07-06T10:03:15.273Z,23.71
2018-07-06T10:04:15.298Z,23.61
2018-07-06T10:05:15.281Z,23.48
2018-07-06T10:06:15.290Z,23.61
2018-07-06T10:07:15.290Z,23.83
2018-07-06T10:08:15.296Z,23.96
2018-07-06T10:09:15.304Z,24.16
2018-07-06T10:10:15.377Z,24.24
2018-07-06T10:11:15.310Z,24.35
2018-07-06T10:12:15.314Z,24.23
2018-07-06T10:13:15.320Z,24.24
2018-07-06T10:14:15.325Z,24.11
2018-07-06T10:15:15.332Z,24.16
2018-07-06T10:16:15.369Z,24.16
2018-07-06T10:17:15.612Z,24.06
2018-07-06T10:18:15.346Z,24.10
2018-07-06T10:19:15.354Z,23.98
2018-07-06T10:20:15.357Z,24.08
2018-07-06T10:21:15.360Z,24.24
2018-07-06T10:22:15.371Z,24.36
2018-07-06T10:23:15.371Z,24.54
2018-07-06T10:24:15.376Z,24.73
2018-07-06T10:25:15.387Z,24.88
2018-07-06T10:26:15.389Z,25.03
2018-07-06T10:27:15.393Z,25.41
2018-07-06T10:28:15.491Z,25.62
2018-07-06T10:29:15.447Z,25.60
2018-07-06T10:30:15.447Z,25.59
2018-07-06T10:31:15.429Z,25.50
2018-07-06T10:32:15.446Z,25.32
2018-07-06T10:33:16.126Z,25.28
2018-07-06T10:34:15.522Z,25.25
2018-07-06T10:35:15.509Z,25.33
2018-07-06T10:36:15.441Z,25.32
2018-07-06T10:37:15.499Z,25.41
2018-07-06T10:38:15.495Z,25.50
2018-07-06T10:39:15.620Z,25.62
2018-07-06T10:40:15.464Z,25.72
2018-07-06T10:41:15.498Z,25.73
2018-07-06T10:42:15.472Z,25.75
2018-07-06T10:43:15.480Z,26.00
2018-07-06T10:44:15.485Z,26.00
2018-07-06T10:45:15.488Z,25.93
2018-07-06T10:46:15.496Z,25.80
2018-07-06T10:47:15.650Z,25.88
2018-07-06T10:48:15.505Z,25.93
2018-07-06T10:49:15.533Z,25.93
2018-07-06T10:50:15.523Z,25.80
2018-07-06T10:51:15.521Z,25.73
2018-07-06T10:52:15.572Z,25.62
2018-07-06T10:53:15.536Z,25.70
2018-07-06T10:54:15.540Z,26.44
2018-07-06T10:55:15.544Z,26.92
2018-07-06T10:56:15.551Z,26.90
2018-07-06T10:57:15.557Z,26.70
2018-07-06T10:58:15.563Z,26.68
2018-07-06T10:59:15.601Z,26.63
2018-07-06T11:00:15.575Z,26.71
2018-07-06T11:01:15.583Z,26.62
2018-07-06T11:02:15.589Z,26.48
2018-07-06T11:03:15.594Z,27.32
2018-07-06T11:04:15.599Z,27.58
2018-07-06T11:05:15.609Z,27.48
2018-07-06T11:06:15.613Z,27.36
2018-07-06T11:07:15.621Z,27.17
2018-07-06T11:08:15.625Z,27.10
2018-07-06T11:09:15.636Z,26.85
2018-07-06T11:10:15.638Z,26.83
2018-07-06T11:11:15.645Z,26.48
2018-07-06T11:12:15.652Z,26.37
2018-07-06T11:13:15.659Z,26.52
2018-07-06T11:14:15.666Z,26.45
2018-07-06T11:15:15.680Z,26.71
2018-07-06T11:16:15.675Z,26.81
2018-07-06T11:17:15.682Z,26.89
2018-07-06T11:18:15.687Z,26.92
2018-07-06T11:19:15.694Z,26.81
2018-07-06T11:20:15.705Z,26.93
2018-07-06T11:21:15.707Z,26.99
2018-07-06T11:22:15.714Z,27.00
2018-07-06T11:23:15.716Z,27.30
2018-07-06T11:24:15.726Z,27.63
2018-07-06T11:25:15.758Z,27.64
2018-07-06T11:26:15.739Z,27.86
2018-07-06T11:27:15.747Z,27.74
2018-07-06T11:28:15.765Z,27.68
2018-07-06T11:29:15.786Z,27.73
2018-07-06T11:30:15.767Z,27.48
2018-07-06T11:31:15.769Z,27.32
2018-07-06T11:32:15.802Z,27.15
2018-07-06T11:33:15.785Z,26.99
2018-07-06T11:34:15.791Z,26.80
2018-07-06T11:35:15.795Z,26.65
2018-07-06T11:36:15.801Z,26.58
2018-07-06T11:37:15.810Z,26.55
2018-07-06T11:38:15.943Z,26.51
2018-07-06T11:39:15.826Z,26.40
2018-07-06T11:40:15.829Z,26.38
2018-07-06T11:41:15.833Z,26.45
2018-07-06T11:42:15.841Z,26.41
2018-07-06T11:43:15.852Z,26.45
2018-07-06T11:44:15.864Z,26.52
2018-07-06T11:45:15.956Z,26.40
2018-07-06T11:46:15.865Z,26.52
2018-07-06T11:47:15.874Z,26.45
2018-07-06T11:48:15.878Z,26.40
2018-07-06T11:49:15.885Z,26.38
2018-07-06T11:50:15.918Z,26.33
2018-07-06T11:51:15.895Z,26.45
2018-07-06T11:52:15.901Z,26.40
2018-07-06T11:53:15.905Z,26.51
2018-07-06T11:54:15.911Z,26.53
2018-07-06T11:55:15.917Z,26.66
2018-07-06T11:56:15.926Z,27.10
2018-07-06T11:57:15.933Z,27.58
2018-07-06T11:58:15.963Z,28.05
2018-07-06T11:59:15.950Z,28.14
2018-07-06T12:00:15.948Z,28.39
2018-07-06T12:01:15.959Z,28.47
2018-07-06T12:02:15.960Z,28.32
2018-07-06T12:03:15.968Z,28.25
2018-07-06T12:04:15.998Z,28.37
2018-07-06T12:05:15.984Z,28.30
2018-07-06T12:06:15.989Z,28.20
2018-07-06T12:07:15.994Z,28.08
2018-07-06T12:08:16.007Z,27.93
2018-07-06T12:09:16.069Z,27.93
2018-07-06T12:10:16.015Z,27.77
2018-07-06T12:11:16.028Z,28.38
2018-07-06T12:12:16.048Z,28.82
2018-07-06T12:13:16.036Z,28.74
2018-07-06T12:14:16.050Z,28.52
2018-07-06T12:15:16.051Z,28.42
2018-07-06T12:16:16.165Z,28.37
2018-07-06T12:17:16.064Z,28.12
2018-07-06T12:18:16.071Z,27.87
2018-07-06T12:19:16.079Z,27.71
2018-07-06T12:20:16.083Z,27.68
2018-07-06T12:21:16.178Z,27.58
2018-07-06T12:22:16.099Z,28.07
2018-07-06T12:23:16.110Z,28.00
2018-07-06T12:24:16.110Z,27.82
2018-07-06T12:25:16.119Z,28.23
2018-07-06T12:26:16.213Z,28.23
2018-07-06T12:27:16.130Z,28.14
2018-07-06T12:28:16.136Z,27.96
2018-07-06T12:29:16.221Z,27.80
2018-07-06T12:30:16.150Z,27.83
2018-07-06T12:31:16.162Z,27.70
2018-07-06T12:32:16.164Z,27.64
2018-07-06T12:33:16.170Z,27.71
2018-07-06T12:34:16.178Z,27.65
2018-07-06T12:35:16.184Z,28.08
2018-07-06T12:36:16.194Z,28.70
2018-07-06T12:37:16.205Z,28.67
2018-07-06T12:38:16.205Z,28.70
2018-07-06T12:39:16.212Z,29.10
2018-07-06T12:40:16.217Z,29.81
2018-07-06T12:41:16.247Z,30.55
2018-07-06T12:42:16.247Z,31.27
2018-07-06T12:43:16.237Z,31.99
2018-07-06T12:44:16.245Z,32.43
2018-07-06T12:45:16.252Z,32.58
2018-07-06T12:46:16.264Z,32.64
2018-07-06T12:47:16.275Z,32.22
2018-07-06T12:48:16.280Z,31.70
2018-07-06T12:49:16.290Z,31.52
2018-07-06T12:50:16.298Z,31.36
2018-07-06T12:51:16.309Z,31.33
2018-07-06T12:52:16.313Z,31.80